createdAt,value
2023-02-16T00:01:22.382Z,119.93
2023-02-16T00:03:53.200Z,118.72
2023-02-16T00:06:22.578Z,122.65
2023-02-16T00:08:57.176Z,112.32
2023-02-16T00:11:49.790Z,119.57
2023-02-16T00:14:26.177Z,106.00
2023-02-16T00:16:56.227Z,133.68
2023-02-16T00:19:28.013Z,134.23
2023-02-16T00:21:59.760Z,143.77
2023-02-16T00:24:30.884Z,145.90
2023-02-16T00:27:00.782Z,131.77
2023-02-16T00:29:33.435Z,139.07
2023-02-16T00:32:06.011Z,149.30
2023-02-16T00:34:37.175Z,152.48
2023-02-16T00:37:08.295Z,149.60
2023-02-16T00:39:38.730Z,136.45
2023-02-16T00:42:14.798Z,154.65
2023-02-16T00:44:48.028Z,132.60
2023-02-16T00:47:21.760Z,151.35
2023-02-16T00:49:53.319Z,129.32
2023-02-16T00:52:35.605Z,135.07
2023-02-16T00:55:09.576Z,124.15
2023-02-16T00:57:44.049Z,123.65
2023-02-16T01:00:22.287Z,125.75
2023-02-16T01:02:58.586Z,135.88
2023-02-16T01:05:28.793Z,118.72
2023-02-16T01:08:12.473Z,139.38
2023-02-16T01:10:59.699Z,129.90
2023-02-16T01:13:31.032Z,143.77
2023-02-16T01:16:01.653Z,136.30
2023-02-16T01:18:32.159Z,134.00
2023-02-16T01:21:01.533Z,125.85
2023-02-16T01:23:30.715Z,126.32
2023-02-16T01:25:59.833Z,117.18
2023-02-16T01:28:28.944Z,104.00
2023-02-16T01:30:58.091Z,116.70
2023-02-16T01:33:28.624Z,112.25
2023-02-16T01:35:58.897Z,113.10
2023-02-16T01:38:30.284Z,116.68
2023-02-16T01:41:10.586Z,122.43
2023-02-16T01:43:47.988Z,112.00
2023-02-16T01:46:25.443Z,116.03
2023-02-16T01:48:55.983Z,120.78
2023-02-16T01:51:30.464Z,131.50
2023-02-16T01:54:08.728Z,122.25
2023-02-16T01:56:44.530Z,121.00
2023-02-16T01:59:28.718Z,132.57
2023-02-16T02:01:59.363Z,124.32
2023-02-16T02:04:59.304Z,145.32
2023-02-16T02:07:36.207Z,117.82
2023-02-16T02:10:11.317Z,124.20
2023-02-16T02:12:50.932Z,137.70
2023-02-16T02:15:27.926Z,125.95
2023-02-16T02:17:57.089Z,135.00
2023-02-16T02:21:00.648Z,133.32
2023-02-16T02:23:50.200Z,132.75
2023-02-16T02:27:08.698Z,129.20
2023-02-16T02:30:09.940Z,121.78
2023-02-16T02:33:21.525Z,137.18
2023-02-16T02:35:59.643Z,136.88
2023-02-16T02:38:38.225Z,123.93
2023-02-16T02:41:20.221Z,121.95
2023-02-16T02:43:58.367Z,121.00
2023-02-16T02:46:32.435Z,120.88
2023-02-16T02:49:01.496Z,118.82
2023-02-16T02:51:30.819Z,126.93
2023-02-16T02:54:27.412Z,128.88
2023-02-16T02:57:24.356Z,130.75
2023-02-16T03:00:20.159Z,128.32
2023-02-16T03:02:53.220Z,122.07
2023-02-16T03:05:24.627Z,129.23
2023-02-16T03:08:06.384Z,123.75
2023-02-16T03:10:56.301Z,120.10
2023-02-16T03:13:33.711Z,124.38
2023-02-16T03:16:11.370Z,121.70
2023-02-16T03:19:00.896Z,132.77
2023-02-16T03:21:47.718Z,134.13
2023-02-16T03:24:41.156Z,124.47
2023-02-16T03:27:28.575Z,106.15
2023-02-16T03:29:59.090Z,114.90
2023-02-16T03:32:29.529Z,104.72
2023-02-16T03:34:58.708Z,109.53
2023-02-16T03:37:27.931Z,106.03
2023-02-16T03:40:15.778Z,106.85
2023-02-16T03:42:51.038Z,101.85
2023-02-16T03:45:22.349Z,99.20
2023-02-16T03:47:52.762Z,101.75
2023-02-16T03:50:22.062Z,107.50
2023-02-16T03:52:51.079Z,104.13
2023-02-16T03:55:20.465Z,106.57
2023-02-16T03:57:49.462Z,112.32
2023-02-16T04:00:19.599Z,106.25
2023-02-16T04:02:49.627Z,110.45
2023-02-16T04:05:20.207Z,101.57
2023-02-16T04:07:49.264Z,99.03
2023-02-16T04:10:18.602Z,100.45
2023-02-16T04:12:47.315Z,102.20
2023-02-16T04:15:20.873Z,102.68
2023-02-16T04:17:50.473Z,103.80
2023-02-16T04:20:23.900Z,100.50
2023-02-16T04:22:53.654Z,103.10
2023-02-16T04:25:23.143Z,88.93
2023-02-16T04:27:53.270Z,90.30
2023-02-16T04:30:25.203Z,93.60
2023-02-16T04:32:54.732Z,103.28
2023-02-16T04:35:25.354Z,104.10
2023-02-16T04:37:54.442Z,102.63
2023-02-16T04:40:24.192Z,95.88
2023-02-16T04:42:53.194Z,99.63
2023-02-16T04:45:22.684Z,100.60
2023-02-16T04:47:52.378Z,92.13
2023-02-16T04:50:22.084Z,90.57
2023-02-16T04:52:52.435Z,99.57
2023-02-16T04:55:21.555Z,93.57
2023-02-16T04:57:50.532Z,91.75
2023-02-16T05:00:21.364Z,114.18
2023-02-16T05:02:50.406Z,99.55
2023-02-16T05:05:19.684Z,97.75
2023-02-16T05:07:48.663Z,94.88
2023-02-16T05:10:19.199Z,94.68
2023-02-16T05:13:05.707Z,98.78
2023-02-16T05:15:34.752Z,105.33
2023-02-16T05:18:03.770Z,100.72
2023-02-16T05:20:46.573Z,104.80
2023-02-16T05:23:16.331Z,104.22
2023-02-16T05:25:46.722Z,104.88
2023-02-16T05:28:15.815Z,112.28
2023-02-16T05:30:44.922Z,120.40
2023-02-16T05:33:13.911Z,116.40
2023-02-16T05:35:42.923Z,95.93
2023-02-16T05:38:11.924Z,108.60
2023-02-16T05:40:40.948Z,121.38
2023-02-16T05:43:11.290Z,124.95
2023-02-16T05:45:40.511Z,121.30
2023-02-16T05:48:09.445Z,111.93
2023-02-16T05:50:38.488Z,115.05
2023-02-16T05:53:07.487Z,117.50
2023-02-16T05:55:36.549Z,122.45
2023-02-16T05:58:05.572Z,107.18
2023-02-16T06:00:36.709Z,108.82
2023-02-16T06:03:05.873Z,110.05
2023-02-16T06:05:35.297Z,111.65
2023-02-16T06:08:04.333Z,108.53
2023-02-16T06:10:33.361Z,99.57
2023-02-16T06:13:02.349Z,102.10
2023-02-16T06:15:31.409Z,95.38
2023-02-16T06:18:03.279Z,101.43
2023-02-16T06:20:32.293Z,98.63
2023-02-16T06:23:01.363Z,98.22
2023-02-16T06:25:30.615Z,93.15
2023-02-16T06:27:59.699Z,98.68
2023-02-16T06:30:29.220Z,99.80
2023-02-16T06:32:58.291Z,93.95
2023-02-16T06:35:28.747Z,91.53
2023-02-16T06:37:59.164Z,97.38
2023-02-16T06:40:28.427Z,99.80
2023-02-16T06:42:57.577Z,100.13
2023-02-16T06:45:26.597Z,92.47
2023-02-16T06:47:55.557Z,88.55
2023-02-16T06:50:24.580Z,85.50
2023-02-16T06:52:54.939Z,92.25
2023-02-16T06:55:23.969Z,87.38
2023-02-16T06:57:52.941Z,85.32
2023-02-16T07:00:22.831Z,83.15
2023-02-16T07:02:51.851Z,81.07
2023-02-16T07:05:20.914Z,86.40
2023-02-16T07:07:49.869Z,84.85
2023-02-16T07:10:20.729Z,83.65
2023-02-16T07:12:50.018Z,78.65
2023-02-16T07:15:19.278Z,78.85
2023-02-16T07:17:48.291Z,66.55
2023-02-16T07:20:18.515Z,72.35
2023-02-16T07:22:47.496Z,76.20
2023-02-16T07:25:16.615Z,70.70
2023-02-16T07:27:47.005Z,66.15
2023-02-16T07:30:17.115Z,65.25
2023-02-16T07:32:46.304Z,72.57
2023-02-16T07:35:15.669Z,73.03
2023-02-16T07:37:44.732Z,73.13
2023-02-16T07:40:14.547Z,74.18
2023-02-16T07:42:43.536Z,77.18
2023-02-16T07:45:13.922Z,77.43
2023-02-16T07:47:42.963Z,71.28
2023-02-16T07:50:12.761Z,61.00
2023-02-16T07:52:41.768Z,68.47
2023-02-16T07:55:12.061Z,72.80
2023-02-16T07:57:41.566Z,76.68
2023-02-16T08:00:13.426Z,65.38
2023-02-16T08:02:42.761Z,68.32
2023-02-16T08:05:11.861Z,68.95
2023-02-16T08:07:41.871Z,67.45
2023-02-16T08:10:13.035Z,61.67
2023-02-16T08:12:42.122Z,61.50
2023-02-16T08:15:13.619Z,66.68
2023-02-16T08:17:43.546Z,64.75
2023-02-16T08:20:13.737Z,57.63
2023-02-16T08:22:43.682Z,74.20
2023-02-16T08:25:15.963Z,60.65
2023-02-16T08:27:45.016Z,64.10
2023-02-16T08:30:18.288Z,60.53
2023-02-16T08:32:50.877Z,61.90
2023-02-16T08:35:20.398Z,64.82
2023-02-16T08:37:50.759Z,53.78
2023-02-16T08:40:24.368Z,55.60
2023-02-16T08:42:53.536Z,56.10
2023-02-16T08:45:23.942Z,49.08
2023-02-16T08:47:53.284Z,54.55
2023-02-16T08:50:22.594Z,57.65
2023-02-16T08:52:51.570Z,55.40
2023-02-16T08:55:20.551Z,52.53
2023-02-16T08:57:49.534Z,53.97
2023-02-16T09:00:39.044Z,54.58
2023-02-16T09:03:09.491Z,47.28
2023-02-16T09:05:38.935Z,46.08
2023-02-16T09:08:07.936Z,51.40
2023-02-16T09:10:37.130Z,48.05
2023-02-16T09:13:06.300Z,41.58
2023-02-16T09:15:36.976Z,48.45
2023-02-16T09:18:09.172Z,42.17
2023-02-16T09:20:41.750Z,50.42
2023-02-16T09:23:12.451Z,45.55
2023-02-16T09:25:42.568Z,48.83
2023-02-16T09:28:11.922Z,46.33
2023-02-16T09:30:41.248Z,46.80
2023-02-16T09:33:10.235Z,45.30
2023-02-16T09:35:41.706Z,43.53
2023-02-16T09:38:10.891Z,47.13
2023-02-16T09:40:39.960Z,43.05
2023-02-16T09:43:31.868Z,40.40
2023-02-16T09:46:04.015Z,53.15
2023-02-16T09:48:38.774Z,67.50
2023-02-16T09:51:12.385Z,53.38
2023-02-16T09:53:45.184Z,57.55
2023-02-16T09:56:23.693Z,60.65
2023-02-16T09:58:58.806Z,55.22
2023-02-16T10:01:36.401Z,45.75
2023-02-16T10:04:31.862Z,48.00
2023-02-16T10:07:18.309Z,52.30
2023-02-16T10:09:53.574Z,51.95
2023-02-16T10:12:28.299Z,52.95
2023-02-16T10:15:07.635Z,57.88
2023-02-16T10:17:46.939Z,57.97
2023-02-16T10:20:20.683Z,66.82
2023-02-16T10:22:56.814Z,59.67
2023-02-16T10:25:38.332Z,61.83
2023-02-16T10:28:17.718Z,59.53
2023-02-16T10:30:54.904Z,63.65
2023-02-16T10:33:41.297Z,66.75
2023-02-16T10:36:23.380Z,65.28
2023-02-16T10:39:03.671Z,60.83
2023-02-16T10:41:38.137Z,63.25
2023-02-16T10:44:16.736Z,62.65
2023-02-16T10:46:53.374Z,67.20
2023-02-16T10:49:22.773Z,55.42
2023-02-16T10:51:53.165Z,71.90
2023-02-16T10:54:28.027Z,64.93
2023-02-16T10:57:01.175Z,64.95
2023-02-16T10:59:38.657Z,69.05
2023-02-16T11:04:52.558Z,61.47
2023-02-16T11:07:24.140Z,63.08
2023-02-16T11:09:57.377Z,64.13
2023-02-16T11:12:32.505Z,59.65
2023-02-16T11:15:06.350Z,64.78
2023-02-16T11:17:53.682Z,64.00
2023-02-16T11:20:32.683Z,61.67
2023-02-16T11:23:22.663Z,62.08
2023-02-16T11:26:03.088Z,58.97
2023-02-16T11:28:35.991Z,58.13
2023-02-16T11:31:19.987Z,60.20
2023-02-16T11:34:00.293Z,63.75
2023-02-16T11:36:36.627Z,58.78
2023-02-16T11:39:11.096Z,60.65
2023-02-16T11:41:47.209Z,62.13
2023-02-16T11:44:28.697Z,57.30
2023-02-16T11:46:59.151Z,59.45
2023-02-16T11:49:35.359Z,55.17
2023-02-16T11:52:25.172Z,52.85
2023-02-16T11:54:58.584Z,53.85
2023-02-16T11:57:33.793Z,47.80
2023-02-16T12:00:17.533Z,53.95
2023-02-16T12:03:33.396Z,51.10
2023-02-16T12:06:20.946Z,50.60
2023-02-16T12:09:08.432Z,49.33
2023-02-16T12:11:50.933Z,46.80
2023-02-16T12:14:42.384Z,50.45
2023-02-16T12:17:27.899Z,50.60
2023-02-16T12:20:06.976Z,41.88
2023-02-16T12:22:45.790Z,42.00
2023-02-16T12:25:27.505Z,43.45
2023-02-16T12:28:05.160Z,40.47
2023-02-16T12:30:52.739Z,46.72
2023-02-16T12:33:41.876Z,38.60
2023-02-16T12:36:44.590Z,37.30
2023-02-16T12:39:23.430Z,38.15
2023-02-16T12:42:10.225Z,40.90
2023-02-16T12:44:46.064Z,33.47
2023-02-16T12:47:22.687Z,40.75
2023-02-16T12:49:55.086Z,37.47
2023-02-16T12:52:38.752Z,40.22
2023-02-16T12:55:22.423Z,41.30
2023-02-16T12:58:03.022Z,37.40
2023-02-16T13:00:43.781Z,40.85
2023-02-16T13:03:33.406Z,43.75
2023-02-16T13:06:15.704Z,40.67
2023-02-16T13:08:52.547Z,35.53
2023-02-16T13:11:25.740Z,34.13
2023-02-16T13:14:02.025Z,36.00
2023-02-16T13:16:43.677Z,35.15
2023-02-16T13:19:16.532Z,33.13
2023-02-16T13:22:27.727Z,34.05
2023-02-16T13:25:40.439Z,25.65
2023-02-16T13:28:31.575Z,24.45
2023-02-16T13:31:17.203Z,30.08
2023-02-16T13:34:09.656Z,29.23
2023-02-16T13:37:25.117Z,27.55
2023-02-16T13:40:51.780Z,25.95
2023-02-16T13:43:35.155Z,26.88
2023-02-16T13:46:11.636Z,28.00
2023-02-16T13:48:48.974Z,29.47
2023-02-16T13:53:57.627Z,23.23
2023-02-16T13:56:38.618Z,38.03
2023-02-16T14:00:00.921Z,23.98
2023-02-16T14:02:59.839Z,23.08
2023-02-16T14:05:39.758Z,21.83
2023-02-16T14:08:24.912Z,21.52
2023-02-16T14:11:05.411Z,23.70
2023-02-16T14:13:49.627Z,27.98
2023-02-16T14:16:33.548Z,24.45
2023-02-16T14:19:17.868Z,27.02
2023-02-16T14:21:49.179Z,21.05
2023-02-16T14:24:33.299Z,24.55
2023-02-16T14:27:07.773Z,22.10
2023-02-16T14:29:41.962Z,22.58
2023-02-16T14:32:26.373Z,20.80
2023-02-16T14:34:58.828Z,21.73
2023-02-16T14:37:40.572Z,21.42
2023-02-16T14:40:40.344Z,24.85
2023-02-16T14:43:26.418Z,19.98
2023-02-16T14:46:20.199Z,21.35
2023-02-16T14:50:04.084Z,25.33
2023-02-16T14:53:09.724Z,19.83
2023-02-16T14:56:13.697Z,23.45
2023-02-16T14:58:56.768Z,22.83
2023-02-16T15:01:28.193Z,21.48
2023-02-16T15:03:58.502Z,21.15
2023-02-16T15:06:37.229Z,24.17
2023-02-16T15:09:15.750Z,24.88
2023-02-16T15:12:09.117Z,24.23
2023-02-16T15:14:45.245Z,24.02
2023-02-16T15:17:27.427Z,25.75
2023-02-16T15:20:04.666Z,23.75
2023-02-16T15:25:05.487Z,31.10
2023-02-16T15:27:35.016Z,27.60
2023-02-16T15:30:24.137Z,26.20
2023-02-16T15:32:57.469Z,27.33
2023-02-16T15:35:35.964Z,26.50
2023-02-16T15:38:22.318Z,28.65
2023-02-16T15:40:55.106Z,27.13
2023-02-16T15:43:32.385Z,26.40
2023-02-16T15:46:05.950Z,24.75
2023-02-16T15:48:39.105Z,26.73
2023-02-16T15:51:15.604Z,29.90
2023-02-16T15:53:51.673Z,26.95
2023-02-16T15:56:39.578Z,28.33
2023-02-16T16:02:06.172Z,28.40
2023-02-16T16:04:41.063Z,28.05
2023-02-16T16:07:17.649Z,32.08
2023-02-16T16:09:48.614Z,33.03
2023-02-16T16:12:21.975Z,27.88
2023-02-16T16:14:57.077Z,21.30
2023-02-16T16:17:30.685Z,27.33
2023-02-16T16:20:19.061Z,22.52
2023-02-16T16:22:56.754Z,22.75
2023-02-16T16:25:49.015Z,30.40
2023-02-16T16:28:38.315Z,31.52
2023-02-16T16:31:11.891Z,25.98
2023-02-16T16:33:57.936Z,26.88
2023-02-16T16:36:34.288Z,22.95
2023-02-16T16:39:28.015Z,24.20
2023-02-16T16:42:24.290Z,19.45
2023-02-16T16:45:05.522Z,23.00
2023-02-16T16:47:40.239Z,25.38
2023-02-16T16:50:33.677Z,26.67
2023-02-16T16:53:03.332Z,21.88
2023-02-16T16:55:35.373Z,22.00
2023-02-16T16:58:08.054Z,20.10
2023-02-16T17:00:41.935Z,21.85
2023-02-16T17:03:16.857Z,20.77
2023-02-16T17:05:47.485Z,25.63
2023-02-16T17:08:16.500Z,31.80
2023-02-16T17:10:45.519Z,30.10
2023-02-16T17:13:17.533Z,25.38
2023-02-16T17:15:52.289Z,25.10
2023-02-16T17:18:23.222Z,22.85
2023-02-16T17:20:53.845Z,22.88
2023-02-16T17:23:23.850Z,23.65
2023-02-16T17:25:53.104Z,24.80
2023-02-16T17:28:22.934Z,32.78
2023-02-16T17:30:52.144Z,31.88
2023-02-16T17:33:21.112Z,30.98
2023-02-16T17:35:50.196Z,26.20
2023-02-16T17:38:23.923Z,56.83
2023-02-16T17:40:55.888Z,53.42
2023-02-16T17:43:26.616Z,41.10
2023-02-16T17:45:59.627Z,32.70
2023-02-16T17:48:31.019Z,40.55
2023-02-16T17:51:00.624Z,34.75
2023-02-16T17:53:30.928Z,36.00
2023-02-16T17:56:00.027Z,37.00
2023-02-16T17:58:28.979Z,36.60
2023-02-16T18:00:58.042Z,27.92
2023-02-16T18:03:27.032Z,30.25
2023-02-16T18:05:56.734Z,31.45
2023-02-16T18:08:26.121Z,27.65
2023-02-16T18:11:02.147Z,31.75
2023-02-16T18:13:32.287Z,35.08
2023-02-16T18:16:03.814Z,33.90
2023-02-16T18:18:34.892Z,27.55
2023-02-16T18:21:04.407Z,45.85
2023-02-16T18:23:33.965Z,30.70
2023-02-16T18:26:05.469Z,36.15
2023-02-16T18:28:36.422Z,32.47
2023-02-16T18:31:08.127Z,34.92
2023-02-16T18:33:37.326Z,40.15
2023-02-16T18:36:07.533Z,37.45
2023-02-16T18:38:36.874Z,43.65
2023-02-16T18:41:08.294Z,49.70
2023-02-16T18:43:37.319Z,39.67
2023-02-16T18:46:08.166Z,45.83
2023-02-16T18:48:38.140Z,47.15
2023-02-16T18:51:08.419Z,46.42
2023-02-16T18:53:38.334Z,43.53
2023-02-16T18:56:10.869Z,37.60
2023-02-16T18:58:41.491Z,41.13
2023-02-16T19:01:15.657Z,39.08
2023-02-16T19:03:47.147Z,34.70
2023-02-16T19:06:16.240Z,47.83
2023-02-16T19:08:47.505Z,41.88
2023-02-16T19:11:19.185Z,49.33
2023-02-16T19:13:48.255Z,45.47
2023-02-16T19:16:18.270Z,47.10
2023-02-16T19:18:47.715Z,52.60
2023-02-16T19:21:18.687Z,56.33
2023-02-16T19:23:51.894Z,51.50
2023-02-16T19:26:26.206Z,53.85
2023-02-16T19:28:55.535Z,49.72
2023-02-16T19:31:28.671Z,53.33
2023-02-16T19:34:01.276Z,49.10
2023-02-16T19:36:32.154Z,48.20
2023-02-16T19:39:01.680Z,55.17
2023-02-16T19:41:38.703Z,49.97
2023-02-16T19:44:08.304Z,44.78
2023-02-16T19:46:37.779Z,47.47
2023-02-16T19:49:08.076Z,54.35
2023-02-16T19:51:37.254Z,56.35
2023-02-16T19:54:06.503Z,56.55
2023-02-16T19:56:40.523Z,59.40
2023-02-16T19:59:10.562Z,49.13
2023-02-16T20:01:41.798Z,58.10
2023-02-16T20:04:12.841Z,63.58
2023-02-16T20:06:42.600Z,62.45
2023-02-16T20:09:13.511Z,55.88
2023-02-16T20:11:46.801Z,49.97
2023-02-16T20:14:16.225Z,49.50
2023-02-16T20:16:46.354Z,55.95
2023-02-16T20:19:16.006Z,55.95
2023-02-16T20:21:46.580Z,57.00
2023-02-16T20:24:16.459Z,57.88
2023-02-16T20:26:51.356Z,56.00
2023-02-16T20:29:21.009Z,60.97
2023-02-16T20:31:55.683Z,54.95
2023-02-16T20:34:27.383Z,54.60
2023-02-16T20:36:56.712Z,51.03
2023-02-16T20:39:26.736Z,50.70
2023-02-16T20:42:01.220Z,66.72
2023-02-16T20:44:32.328Z,53.53
2023-02-16T20:47:01.945Z,59.25
2023-02-16T20:49:31.863Z,55.38
2023-02-16T20:52:01.656Z,60.65
2023-02-16T20:54:31.702Z,66.00
2023-02-16T20:57:02.120Z,52.83
2023-02-16T20:59:31.241Z,63.33
2023-02-16T21:02:00.309Z,58.67
2023-02-16T21:04:29.484Z,59.42
2023-02-16T21:06:58.607Z,67.85
2023-02-16T21:09:27.632Z,57.53
2023-02-16T21:11:56.983Z,66.88
2023-02-16T21:14:27.389Z,65.93
2023-02-16T21:16:56.401Z,67.57
2023-02-16T21:19:25.398Z,71.05
2023-02-16T21:21:54.435Z,61.70
2023-02-16T21:24:23.624Z,63.10
2023-02-16T21:26:52.630Z,63.85
2023-02-16T21:29:21.618Z,64.00
2023-02-16T21:31:52.114Z,65.85
2023-02-16T21:34:21.287Z,66.03
2023-02-16T21:36:50.529Z,64.15
2023-02-16T21:39:19.627Z,66.30
2023-02-16T21:41:48.827Z,64.25
2023-02-16T21:44:18.342Z,64.10
2023-02-16T21:46:48.794Z,59.33
2023-02-16T21:49:20.155Z,64.85
2023-02-16T21:51:49.840Z,70.18
2023-02-16T21:54:41.065Z,60.53
2023-02-16T21:57:09.050Z,64.07
2023-02-16T21:59:38.221Z,65.95
2023-02-16T22:02:07.181Z,65.07
2023-02-16T22:04:37.587Z,66.20
2023-02-16T22:07:06.573Z,61.88
2023-02-16T22:09:35.578Z,82.25
2023-02-16T22:12:04.684Z,82.60
2023-02-16T22:14:33.985Z,86.63
2023-02-16T22:17:04.328Z,62.03
2023-02-16T22:19:33.410Z,59.13
2023-02-16T22:22:03.836Z,58.20
2023-02-16T22:24:32.853Z,66.30
2023-02-16T22:27:01.880Z,74.63
2023-02-16T22:29:31.239Z,65.78
2023-02-16T22:32:00.291Z,66.03
2023-02-16T22:34:29.343Z,65.95
2023-02-16T22:36:58.378Z,68.38
2023-02-16T22:39:31.144Z,62.95
2023-02-16T22:42:00.400Z,67.75
2023-02-16T22:44:30.132Z,70.65
2023-02-16T22:46:59.251Z,69.80
2023-02-16T22:49:28.307Z,64.82
2023-02-16T22:51:57.620Z,64.28
2023-02-16T22:54:28.036Z,65.65
2023-02-16T22:56:57.087Z,57.33
2023-02-16T22:59:26.223Z,56.85
2023-02-16T23:01:55.197Z,57.78
2023-02-16T23:04:24.370Z,56.05
2023-02-16T23:06:53.397Z,53.75
2023-02-16T23:09:23.612Z,57.60
2023-02-16T23:11:54.041Z,64.28
2023-02-16T23:14:23.065Z,63.60
2023-02-16T23:16:54.523Z,61.60
2023-02-16T23:19:28.164Z,65.97
2023-02-16T23:21:57.223Z,64.57
2023-02-16T23:24:26.626Z,62.60
2023-02-16T23:26:57.726Z,62.67
2023-02-16T23:29:27.598Z,67.63
2023-02-16T23:31:56.673Z,65.80
2023-02-16T23:34:25.814Z,59.38
2023-02-16T23:36:54.924Z,64.35
2023-02-16T23:39:24.002Z,54.08
2023-02-16T23:41:53.062Z,58.75
2023-02-16T23:44:23.627Z,59.55
2023-02-16T23:46:52.680Z,61.70
2023-02-16T23:49:21.776Z,55.38
2023-02-16T23:51:50.856Z,56.58
2023-02-16T23:54:19.963Z,57.72
2023-02-16T23:56:50.207Z,53.33
2023-02-16T23:59:20.377Z,53.05
